createdAt,value
2023-05-10T00:01:42.005Z,99.90
2023-05-10T00:04:09.992Z,99.90
2023-05-10T00:06:37.900Z,98.60
2023-05-10T00:09:05.837Z,97.90
2023-05-10T00:11:33.702Z,97.00
2023-05-10T00:14:01.525Z,96.30
2023-05-10T00:16:30.969Z,95.80
2023-05-10T00:18:58.814Z,95.40
2023-05-10T00:21:26.799Z,95.00
2023-05-10T00:23:54.628Z,94.60
2023-05-10T00:26:22.541Z,94.00
2023-05-10T00:28:50.532Z,94.70
2023-05-10T00:31:18.342Z,94.90
2023-05-10T00:33:47.531Z,95.00
2023-05-10T00:36:15.340Z,95.30
2023-05-10T00:38:43.170Z,95.70
2023-05-10T00:41:10.965Z,95.40
2023-05-10T00:43:38.782Z,94.90
2023-05-10T00:46:07.219Z,95.40
2023-05-10T00:48:35.398Z,95.30
2023-05-10T00:51:05.064Z,96.10
2023-05-10T00:53:34.067Z,95.70
2023-05-10T00:56:02.312Z,96.40
2023-05-10T00:58:31.900Z,96.10
2023-05-10T01:01:00.450Z,96.70
2023-05-10T01:03:28.652Z,97.00
2023-05-10T01:05:56.964Z,97.20
2023-05-10T01:08:26.751Z,97.80
2023-05-10T01:10:54.784Z,97.60
2023-05-10T01:13:34.804Z,97.80
2023-05-10T01:16:04.308Z,97.90
2023-05-10T01:18:35.066Z,98.10
2023-05-10T01:21:16.871Z,98.10
2023-05-10T01:24:25.996Z,99.10
2023-05-10T01:27:33.682Z,99.50
2023-05-10T01:30:23.681Z,99.90
2023-05-10T01:33:00.117Z,99.90
2023-05-10T01:35:34.960Z,99.90
2023-05-10T01:38:14.425Z,99.90
2023-05-10T01:40:50.598Z,99.90
2023-05-10T01:43:23.487Z,99.90
2023-05-10T01:46:01.701Z,99.90
2023-05-10T01:48:32.407Z,99.90
2023-05-10T01:51:00.732Z,99.90
2023-05-10T01:53:29.462Z,99.90
2023-05-10T01:55:58.619Z,99.90
2023-05-10T01:58:31.429Z,99.90
2023-05-10T02:01:01.691Z,99.90
2023-05-10T02:03:33.014Z,99.90
2023-05-10T02:06:01.661Z,99.90
2023-05-10T02:08:29.974Z,99.90
2023-05-10T02:10:59.088Z,99.90
2023-05-10T02:13:29.404Z,99.90
2023-05-10T02:15:58.894Z,99.90
2023-05-10T02:18:28.814Z,99.90
2023-05-10T02:20:59.947Z,99.90
2023-05-10T02:23:28.708Z,99.90
2023-05-10T02:25:58.272Z,99.90
2023-05-10T02:28:27.780Z,99.90
2023-05-10T02:30:57.174Z,99.90
2023-05-10T02:33:26.045Z,99.90
2023-05-10T02:35:55.311Z,99.90
2023-05-10T02:38:26.388Z,99.90
2023-05-10T02:40:55.766Z,99.90
2023-05-10T02:43:26.488Z,99.90
2023-05-10T02:45:54.599Z,99.90
2023-05-10T02:48:22.729Z,99.90
2023-05-10T02:50:54.300Z,99.90
2023-05-10T02:53:27.876Z,99.90
2023-05-10T02:56:01.600Z,99.90
2023-05-10T02:58:29.462Z,99.90
2023-05-10T03:00:57.394Z,99.90
2023-05-10T03:03:25.375Z,99.90
2023-05-10T03:05:54.725Z,99.90
2023-05-10T03:08:24.297Z,99.90
2023-05-10T03:11:00.433Z,99.90
2023-05-10T03:13:36.264Z,99.90
2023-05-10T03:16:10.496Z,99.90
2023-05-10T03:18:44.818Z,99.90
2023-05-10T03:21:16.202Z,99.90
2023-05-10T03:23:50.831Z,99.90
2023-05-10T03:26:26.366Z,99.90
2023-05-10T03:28:55.404Z,99.90
2023-05-10T03:31:23.702Z,99.90
2023-05-10T03:33:52.792Z,99.90
2023-05-10T03:36:20.878Z,99.90
2023-05-10T03:38:50.449Z,99.90
2023-05-10T03:41:18.332Z,99.90
2023-05-10T03:43:46.167Z,99.90
2023-05-10T03:46:14.068Z,99.90
2023-05-10T03:48:41.908Z,99.90
2023-05-10T03:51:09.810Z,99.90
2023-05-10T03:53:37.631Z,99.90
2023-05-10T03:56:07.024Z,99.90
2023-05-10T03:58:34.860Z,99.90
2023-05-10T04:01:03.736Z,99.90
2023-05-10T04:03:31.758Z,99.90
2023-05-10T04:06:03.499Z,99.90
2023-05-10T04:08:31.635Z,99.90
2023-05-10T04:11:09.358Z,99.90
2023-05-10T04:13:37.444Z,99.90
2023-05-10T04:16:05.835Z,99.90
2023-05-10T04:18:33.801Z,99.50
2023-05-10T04:21:01.726Z,98.40
2023-05-10T04:23:29.804Z,98.40
2023-05-10T04:26:02.653Z,99.10
2023-05-10T04:28:31.953Z,98.20
2023-05-10T04:31:03.768Z,97.50
2023-05-10T04:33:31.879Z,97.10
2023-05-10T04:35:59.796Z,96.50
2023-05-10T04:38:27.883Z,96.00
2023-05-10T04:40:55.964Z,96.20
2023-05-10T04:43:23.785Z,96.40
2023-05-10T04:45:52.984Z,96.60
2023-05-10T04:48:20.826Z,96.60
2023-05-10T04:50:48.641Z,96.80
2023-05-10T04:53:16.458Z,96.90
2023-05-10T04:55:44.582Z,96.80
2023-05-10T04:58:12.382Z,96.70
2023-05-10T05:00:40.305Z,96.60
2023-05-10T05:03:09.577Z,96.60
2023-05-10T05:05:37.535Z,96.80
2023-05-10T05:08:05.683Z,97.00
2023-05-10T05:10:33.517Z,97.00
2023-05-10T05:13:01.375Z,96.90
2023-05-10T05:15:29.491Z,97.20
2023-05-10T05:17:57.345Z,97.60
2023-05-10T05:20:26.537Z,98.20
2023-05-10T05:22:54.387Z,99.00
2023-05-10T05:25:22.444Z,98.60
2023-05-10T05:27:50.303Z,98.40
2023-05-10T05:30:18.555Z,98.40
2023-05-10T05:32:48.029Z,98.20
2023-05-10T05:35:16.053Z,98.00
2023-05-10T05:37:45.535Z,98.00
2023-05-10T05:40:15.521Z,97.50
2023-05-10T05:42:43.439Z,97.40
2023-05-10T05:45:14.203Z,96.60
2023-05-10T05:47:42.378Z,94.20
2023-05-10T05:50:11.369Z,94.50
2023-05-10T05:52:39.194Z,93.90
2023-05-10T05:55:09.105Z,93.60
2023-05-10T05:57:36.976Z,93.40
2023-05-10T06:00:05.535Z,92.50
2023-05-10T06:02:33.467Z,92.20
2023-05-10T06:05:01.349Z,91.90
2023-05-10T06:07:29.162Z,90.90
2023-05-10T06:09:56.991Z,91.20
2023-05-10T06:12:26.180Z,90.50
2023-05-10T06:14:53.961Z,90.20
2023-05-10T06:17:22.629Z,89.10
2023-05-10T06:19:50.901Z,89.30
2023-05-10T06:22:18.714Z,88.20
2023-05-10T06:24:46.513Z,88.00
2023-05-10T06:27:14.306Z,87.50
2023-05-10T06:29:43.509Z,87.50
2023-05-10T06:32:11.346Z,87.20
2023-05-10T06:34:39.152Z,89.10
2023-05-10T06:37:06.961Z,89.30
2023-05-10T06:39:34.726Z,89.20
2023-05-10T06:42:05.542Z,89.10
2023-05-10T06:44:33.389Z,89.20
2023-05-10T06:47:02.603Z,90.60
2023-05-10T06:49:30.446Z,91.90
2023-05-10T06:51:58.468Z,91.70
2023-05-10T06:54:26.303Z,92.30
2023-05-10T06:56:54.287Z,92.10
2023-05-10T06:59:22.670Z,91.50
2023-05-10T07:01:50.618Z,90.90
2023-05-10T07:04:19.865Z,90.80
2023-05-10T07:06:47.851Z,89.90
2023-05-10T07:09:15.847Z,89.90
2023-05-10T07:11:43.856Z,90.80
2023-05-10T07:14:11.730Z,91.60
2023-05-10T07:16:39.647Z,91.10
2023-05-10T07:19:07.751Z,91.30
2023-05-10T07:21:37.139Z,90.10
2023-05-10T07:24:05.132Z,89.30
2023-05-10T07:26:32.899Z,88.20
2023-05-10T07:29:00.679Z,86.20
2023-05-10T07:31:28.521Z,86.10
2023-05-10T07:33:56.606Z,85.90
2023-05-10T07:36:24.468Z,84.90
2023-05-10T07:38:53.655Z,83.50
2023-05-10T07:41:21.907Z,84.60
2023-05-10T07:43:49.759Z,85.50
2023-05-10T07:46:17.626Z,82.00
2023-05-10T07:48:45.435Z,81.00
2023-05-10T07:51:13.337Z,79.90
2023-05-10T07:53:41.483Z,78.10
2023-05-10T07:56:30.420Z,78.30
2023-05-10T07:58:58.737Z,77.70
2023-05-10T08:01:26.661Z,79.00
2023-05-10T08:03:54.991Z,78.20
2023-05-10T08:06:23.419Z,77.30
2023-05-10T08:08:51.741Z,79.60
2023-05-10T08:11:19.883Z,79.00
2023-05-10T08:13:50.051Z,80.00
2023-05-10T08:16:18.790Z,78.40
2023-05-10T08:18:47.908Z,78.80
2023-05-10T08:21:16.802Z,79.30
2023-05-10T08:23:45.281Z,79.50
2023-05-10T08:26:13.547Z,78.90
2023-05-10T08:28:41.484Z,78.50
2023-05-10T08:31:10.665Z,79.00
2023-05-10T08:33:38.543Z,77.30
2023-05-10T08:36:06.580Z,78.00
2023-05-10T08:38:34.398Z,77.10
2023-05-10T08:41:04.467Z,77.90
2023-05-10T08:43:33.369Z,78.10
2023-05-10T08:46:03.726Z,77.50
2023-05-10T08:48:36.257Z,77.40
2023-05-10T08:51:05.554Z,77.90
2023-05-10T08:53:34.988Z,77.20
2023-05-10T08:56:06.162Z,77.30
2023-05-10T08:58:34.094Z,76.60
2023-05-10T09:01:03.341Z,79.40
2023-05-10T09:03:33.347Z,78.60
2023-05-10T09:06:01.184Z,78.60
2023-05-10T09:08:29.887Z,76.80
2023-05-10T09:10:57.782Z,75.90
2023-05-10T09:13:28.023Z,76.00
2023-05-10T09:15:56.393Z,75.40
2023-05-10T09:18:25.950Z,74.30
2023-05-10T09:20:56.828Z,77.20
2023-05-10T09:23:29.551Z,75.30
2023-05-10T09:26:05.528Z,74.40
2023-05-10T09:28:34.705Z,75.80
2023-05-10T09:31:02.730Z,73.60
2023-05-10T09:33:30.633Z,75.50
2023-05-10T09:36:09.349Z,73.40
2023-05-10T09:38:48.421Z,73.10
2023-05-10T09:41:20.088Z,74.30
2023-05-10T09:43:48.164Z,73.40
2023-05-10T09:46:17.240Z,71.80
2023-05-10T09:48:47.230Z,73.10
2023-05-10T09:51:22.976Z,71.70
2023-05-10T09:54:10.244Z,73.10
2023-05-10T09:56:40.712Z,71.50
2023-05-10T09:59:10.147Z,71.30
2023-05-10T10:01:38.499Z,70.40
2023-05-10T10:04:08.262Z,68.00
2023-05-10T10:06:41.544Z,67.20
2023-05-10T10:09:10.150Z,68.70
2023-05-10T10:11:39.581Z,65.70
2023-05-10T10:14:07.887Z,65.60
2023-05-10T10:16:35.942Z,68.60
2023-05-10T10:19:03.977Z,64.90
2023-05-10T10:21:32.039Z,64.10
2023-05-10T10:24:01.222Z,64.90
2023-05-10T10:26:29.230Z,67.20
2023-05-10T10:29:09.825Z,67.30
2023-05-10T10:31:41.846Z,64.90
2023-05-10T10:34:12.125Z,63.80
2023-05-10T10:36:44.259Z,62.30
2023-05-10T10:39:14.096Z,63.30
2023-05-10T10:41:52.828Z,64.60
2023-05-10T10:44:39.187Z,64.30
2023-05-10T10:47:12.302Z,63.10
2023-05-10T10:49:44.803Z,64.60
2023-05-10T10:52:28.670Z,63.80
2023-05-10T10:55:03.578Z,65.30
2023-05-10T10:57:33.987Z,64.00
2023-05-10T11:00:21.838Z,68.90
2023-05-10T11:02:52.660Z,65.50
2023-05-10T11:05:37.704Z,67.60
2023-05-10T11:08:17.338Z,68.30
2023-05-10T11:10:55.368Z,68.30
2023-05-10T11:13:33.032Z,68.60
2023-05-10T11:16:11.234Z,68.00
2023-05-10T11:18:39.751Z,68.80
2023-05-10T11:21:11.579Z,67.60
2023-05-10T11:23:56.968Z,67.80
2023-05-10T11:26:27.207Z,66.70
2023-05-10T11:29:00.138Z,66.20
2023-05-10T11:31:28.243Z,66.30
2023-05-10T11:33:58.667Z,65.90
2023-05-10T11:36:28.280Z,66.70
2023-05-10T11:38:57.308Z,66.70
2023-05-10T11:41:27.347Z,67.10
2023-05-10T11:43:56.429Z,67.40
2023-05-10T11:46:25.857Z,68.30
2023-05-10T11:48:56.590Z,68.40
2023-05-10T11:51:26.173Z,68.40
2023-05-10T11:53:56.117Z,69.20
2023-05-10T11:56:27.115Z,70.30
2023-05-10T11:58:56.417Z,70.10
2023-05-10T12:01:25.224Z,70.10
2023-05-10T12:03:54.980Z,70.40
2023-05-10T12:06:23.786Z,69.00
2023-05-10T12:08:53.455Z,68.30
2023-05-10T12:11:22.709Z,68.10
2023-05-10T12:13:52.696Z,67.50
2023-05-10T12:16:22.335Z,64.50
2023-05-10T12:18:51.932Z,63.70
2023-05-10T12:21:21.268Z,63.90
2023-05-10T12:23:49.931Z,64.30
2023-05-10T12:26:17.936Z,63.20
2023-05-10T12:28:46.092Z,63.50
2023-05-10T12:31:15.375Z,62.40
2023-05-10T12:33:44.948Z,63.60
2023-05-10T12:36:14.123Z,63.50
2023-05-10T12:38:44.297Z,64.70
2023-05-10T12:41:13.670Z,62.30
2023-05-10T12:43:42.206Z,61.10
2023-05-10T12:46:10.700Z,62.60
2023-05-10T12:48:41.396Z,62.40
2023-05-10T12:51:10.468Z,61.70
2023-05-10T12:53:38.472Z,61.60
2023-05-10T12:56:06.969Z,61.60
2023-05-10T12:58:36.067Z,61.60
2023-05-10T13:01:05.686Z,60.80
2023-05-10T13:03:33.860Z,59.50
2023-05-10T13:06:03.010Z,60.40
2023-05-10T13:08:34.322Z,61.90
2023-05-10T13:11:02.593Z,61.00
2023-05-10T13:13:30.473Z,60.90
2023-05-10T13:15:58.281Z,61.10
2023-05-10T13:18:27.245Z,60.40
2023-05-10T13:20:56.699Z,61.10
2023-05-10T13:23:25.980Z,62.00
2023-05-10T13:25:53.868Z,62.30
2023-05-10T13:28:21.692Z,62.50
2023-05-10T13:30:49.526Z,60.60
2023-05-10T13:33:17.339Z,58.00
2023-05-10T13:35:46.505Z,60.00
2023-05-10T13:38:14.635Z,59.20
2023-05-10T13:40:43.866Z,60.80
2023-05-10T13:43:11.669Z,61.80
2023-05-10T13:45:39.818Z,60.40
2023-05-10T13:48:07.859Z,59.30
2023-05-10T13:50:35.827Z,61.00
2023-05-10T13:53:03.664Z,60.00
2023-05-10T13:55:31.622Z,60.60
2023-05-10T13:58:01.107Z,58.80
2023-05-10T14:00:28.993Z,58.30
2023-05-10T14:02:56.877Z,58.50
2023-05-10T14:05:26.236Z,57.70
2023-05-10T14:07:54.607Z,57.30
2023-05-10T14:10:22.479Z,58.60
2023-05-10T14:12:50.354Z,59.60
2023-05-10T14:15:19.676Z,60.30
2023-05-10T14:17:47.668Z,59.40
2023-05-10T14:20:15.483Z,58.90
2023-05-10T14:22:43.306Z,58.70
2023-05-10T14:25:11.404Z,60.20
2023-05-10T14:27:39.247Z,59.90
2023-05-10T14:30:08.406Z,59.50
2023-05-10T14:32:38.609Z,59.50
2023-05-10T14:35:08.984Z,59.50
2023-05-10T14:37:38.667Z,58.40
2023-05-10T14:40:08.186Z,58.20
2023-05-10T14:42:36.056Z,58.30
2023-05-10T14:45:04.166Z,58.00
2023-05-10T14:47:32.259Z,57.70
2023-05-10T14:50:01.457Z,58.00
2023-05-10T14:52:29.320Z,59.50
2023-05-10T14:54:58.106Z,58.90
2023-05-10T14:57:25.921Z,59.70
2023-05-10T14:59:53.721Z,59.70
2023-05-10T15:02:22.436Z,60.00
2023-05-10T15:04:50.752Z,60.30
2023-05-10T15:07:20.281Z,62.00
2023-05-10T15:09:48.084Z,62.50
2023-05-10T15:12:15.909Z,62.90
2023-05-10T15:14:43.714Z,63.40
2023-05-10T15:17:12.190Z,60.70
2023-05-10T15:19:40.109Z,62.10
2023-05-10T15:22:07.947Z,61.90
2023-05-10T15:24:37.115Z,61.70
2023-05-10T15:27:05.009Z,62.80
2023-05-10T15:29:33.427Z,62.70
2023-05-10T15:32:03.575Z,63.60
2023-05-10T15:34:32.667Z,64.20
2023-05-10T15:37:02.139Z,63.40
2023-05-10T15:39:29.947Z,65.00
2023-05-10T15:41:59.091Z,65.20
2023-05-10T15:44:27.361Z,65.70
2023-05-10T15:46:55.416Z,66.20
2023-05-10T15:49:23.363Z,67.20
2023-05-10T15:51:51.186Z,67.10
2023-05-10T15:54:19.006Z,68.80
2023-05-10T15:56:47.094Z,70.30
2023-05-10T15:59:16.327Z,70.00
2023-05-10T16:01:44.204Z,70.30
2023-05-10T16:04:12.011Z,71.60
2023-05-10T16:06:39.819Z,73.30
2023-05-10T16:09:07.734Z,73.20
2023-05-10T16:11:35.795Z,74.00
2023-05-10T16:14:04.484Z,72.30
2023-05-10T16:16:34.609Z,71.60
2023-05-10T16:19:03.865Z,70.40
2023-05-10T16:21:32.689Z,70.50
2023-05-10T16:24:01.419Z,71.80
2023-05-10T16:26:29.265Z,71.10
2023-05-10T16:28:57.086Z,69.10
2023-05-10T16:31:25.798Z,70.30
2023-05-10T16:33:55.142Z,69.20
2023-05-10T16:36:22.993Z,66.60
2023-05-10T16:38:51.240Z,69.30
2023-05-10T16:41:19.380Z,67.70
2023-05-10T16:43:47.220Z,65.50
2023-05-10T16:46:15.097Z,65.20
2023-05-10T16:48:42.920Z,65.40
2023-05-10T16:51:12.403Z,65.00
2023-05-10T16:53:40.597Z,65.60
2023-05-10T16:56:08.652Z,65.70
2023-05-10T16:58:36.461Z,66.40
2023-05-10T17:01:04.291Z,65.10
2023-05-10T17:03:32.198Z,65.60
2023-05-10T17:06:00.035Z,66.50
2023-05-10T17:08:29.250Z,65.50
2023-05-10T17:10:57.236Z,67.30
2023-05-10T17:13:25.026Z,65.20
2023-05-10T17:15:53.031Z,66.40
2023-05-10T17:18:21.089Z,67.00
2023-05-10T17:20:49.012Z,67.20
2023-05-10T17:23:16.854Z,67.20
2023-05-10T17:25:46.016Z,66.00
2023-05-10T17:28:13.855Z,66.20
2023-05-10T17:30:41.683Z,67.60
2023-05-10T17:33:09.530Z,67.50
2023-05-10T17:35:37.619Z,68.20
2023-05-10T17:38:05.460Z,67.20
2023-05-10T17:40:33.309Z,69.10
2023-05-10T17:43:03.020Z,68.70
2023-05-10T17:45:30.868Z,68.60
2023-05-10T17:47:58.721Z,68.20
2023-05-10T17:50:26.505Z,67.80
2023-05-10T17:52:54.323Z,69.80
2023-05-10T17:55:22.186Z,69.60
2023-05-10T17:57:51.812Z,69.30
2023-05-10T18:00:21.712Z,70.10
2023-05-10T18:02:49.564Z,70.90
2023-05-10T18:05:18.052Z,69.80
2023-05-10T18:07:46.169Z,68.70
2023-05-10T18:10:14.093Z,68.70
2023-05-10T18:12:41.927Z,68.10
2023-05-10T18:15:10.511Z,68.40
2023-05-10T18:17:39.817Z,69.60
2023-05-10T18:20:09.119Z,70.50
2023-05-10T18:22:37.142Z,70.90
2023-05-10T18:25:05.580Z,71.40
2023-05-10T18:27:34.319Z,71.20
2023-05-10T18:30:02.307Z,71.80
2023-05-10T18:32:30.445Z,72.20
2023-05-10T18:34:59.876Z,72.00
2023-05-10T18:37:27.954Z,71.90
2023-05-10T18:39:55.812Z,72.50
2023-05-10T18:42:23.611Z,72.90
2023-05-10T18:44:51.431Z,73.10
2023-05-10T18:47:19.797Z,73.50
2023-05-10T18:49:47.579Z,73.70
2023-05-10T18:52:16.914Z,73.50
2023-05-10T18:54:44.740Z,73.40
2023-05-10T18:57:13.746Z,73.40
2023-05-10T18:59:41.578Z,74.20
2023-05-10T19:02:09.552Z,74.80
2023-05-10T19:04:37.512Z,75.60
2023-05-10T19:07:05.312Z,74.80
2023-05-10T19:09:34.520Z,75.20
2023-05-10T19:12:02.360Z,76.10
2023-05-10T19:14:30.460Z,75.90
2023-05-10T19:17:00.287Z,75.60
2023-05-10T19:19:28.569Z,76.20
2023-05-10T19:21:56.636Z,76.40
2023-05-10T19:24:25.583Z,76.40
2023-05-10T19:26:56.180Z,76.70
2023-05-10T19:29:24.148Z,76.50
2023-05-10T19:31:52.978Z,76.40
2023-05-10T19:34:21.328Z,76.60
2023-05-10T19:36:49.141Z,76.70
2023-05-10T19:39:16.999Z,77.10
2023-05-10T19:41:44.862Z,77.00
2023-05-10T19:44:13.978Z,76.70
2023-05-10T19:46:41.844Z,76.80
2023-05-10T19:49:09.677Z,77.00
2023-05-10T19:51:37.494Z,77.40
2023-05-10T19:54:05.303Z,77.10
2023-05-10T19:56:33.153Z,77.20
2023-05-10T19:59:03.020Z,77.60
2023-05-10T20:01:32.796Z,77.70
2023-05-10T20:04:00.734Z,78.00
2023-05-10T20:06:28.866Z,77.90
2023-05-10T20:08:56.689Z,78.20
2023-05-10T20:11:24.558Z,78.50
2023-05-10T20:13:52.910Z,78.90
2023-05-10T20:16:20.797Z,78.80
2023-05-10T20:18:50.696Z,79.20
2023-05-10T20:21:22.261Z,79.30
2023-05-10T20:23:50.047Z,79.80
2023-05-10T20:26:17.850Z,80.00
2023-05-10T20:28:45.718Z,79.90
2023-05-10T20:31:13.546Z,80.10
2023-05-10T20:33:41.370Z,79.60
2023-05-10T20:36:10.641Z,79.80
2023-05-10T20:38:38.540Z,80.30
2023-05-10T20:41:06.348Z,80.40
2023-05-10T20:43:34.234Z,80.50
2023-05-10T20:46:05.309Z,80.80
2023-05-10T20:48:34.056Z,80.60
2023-05-10T20:51:02.924Z,80.10
2023-05-10T20:53:32.124Z,80.10
2023-05-10T20:55:59.921Z,79.80
2023-05-10T20:58:27.938Z,79.00
2023-05-10T21:00:55.732Z,78.80
2023-05-10T21:03:23.901Z,79.10
2023-05-10T21:05:51.697Z,79.00
2023-05-10T21:08:19.534Z,79.00
2023-05-10T21:10:48.716Z,79.10
2023-05-10T21:13:16.645Z,79.40
2023-05-10T21:15:44.478Z,79.00
2023-05-10T21:18:12.348Z,79.20
2023-05-10T21:20:40.190Z,79.00
2023-05-10T21:23:08.017Z,78.80
2023-05-10T21:25:36.397Z,79.10
2023-05-10T21:28:05.741Z,79.10
2023-05-10T21:30:34.043Z,79.10
2023-05-10T21:33:02.647Z,79.30
2023-05-10T21:35:31.579Z,79.50
2023-05-10T21:37:59.435Z,79.80
2023-05-10T21:40:27.258Z,79.90
2023-05-10T21:42:55.058Z,80.00
2023-05-10T21:45:24.517Z,80.30
2023-05-10T21:47:52.447Z,80.30
2023-05-10T21:50:20.434Z,80.60
2023-05-10T21:52:48.415Z,80.50
2023-05-10T21:55:16.799Z,80.40
2023-05-10T21:57:44.747Z,80.50
2023-05-10T22:00:16.785Z,81.10
2023-05-10T22:02:46.530Z,81.60
2023-05-10T22:05:14.720Z,82.00
2023-05-10T22:07:42.548Z,82.10
2023-05-10T22:10:11.022Z,82.30
2023-05-10T22:12:38.873Z,83.00
2023-05-10T22:15:10.183Z,83.90
2023-05-10T22:17:39.619Z,84.10
2023-05-10T22:20:10.426Z,84.40
2023-05-10T22:22:38.288Z,84.70
2023-05-10T22:25:07.201Z,84.50
2023-05-10T22:27:35.332Z,84.40
2023-05-10T22:30:03.989Z,83.80
2023-05-10T22:32:32.369Z,83.90
2023-05-10T22:35:00.329Z,84.00
2023-05-10T22:37:29.461Z,84.40
2023-05-10T22:39:57.412Z,84.50
2023-05-10T22:42:25.266Z,85.00
2023-05-10T22:44:53.216Z,85.00
2023-05-10T22:47:21.040Z,85.00
2023-05-10T22:49:48.915Z,85.60
2023-05-10T22:52:16.693Z,85.80
2023-05-10T22:54:45.867Z,86.40
2023-05-10T22:57:13.760Z,86.70
2023-05-10T22:59:42.341Z,87.30
2023-05-10T23:02:10.657Z,87.80
2023-05-10T23:04:38.506Z,87.70
2023-05-10T23:07:06.396Z,87.80
2023-05-10T23:09:34.311Z,88.10
2023-05-10T23:12:03.486Z,88.20
2023-05-10T23:14:31.297Z,87.80
2023-05-10T23:16:59.096Z,87.40
2023-05-10T23:19:26.966Z,87.40
2023-05-10T23:21:55.496Z,87.40
2023-05-10T23:24:23.968Z,86.90
2023-05-10T23:26:51.813Z,87.00
2023-05-10T23:29:21.058Z,87.10
2023-05-10T23:31:50.607Z,86.90
2023-05-10T23:34:18.558Z,87.00
2023-05-10T23:36:46.558Z,87.00
2023-05-10T23:39:14.471Z,87.00
2023-05-10T23:41:42.650Z,86.50
2023-05-10T23:44:10.526Z,86.60
2023-05-10T23:46:39.718Z,86.20
2023-05-10T23:49:07.536Z,86.30
2023-05-10T23:51:35.378Z,86.30
2023-05-10T23:54:03.420Z,86.40
2023-05-10T23:56:31.234Z,86.70
2023-05-10T23:58:59.042Z,87.00
